Terminal Aerodrome Forecast
Issued by NWS

Home | Current Version | Previous Version | Text Only | Print | Product List | Glossary On
Versions: 1 2 3 4 5 6 7 8 9 10 11 12 13 14 15
000
FTUS46 KHNX 201730
TAFMER
TAF
KMER 201730Z 2018/2118 14005KT P6SM SCT025 BKN035 OVC045
      TEMPO 2018/2022 -RA SCT015 BKN025
     FM210300 14007KT 3SM -SHRA BR BKN015 OVC025
     FM210600 VRB03KT 3SM BR SCT005 BKN015
      TEMPO 2108/2112 2SM BR BKN005
     FM211200 00000KT 2SM BR BKN005
      TEMPO 2112/2116 1/2SM FG VV003=

USA.gov is the U.S. government's official web portal to all federal, state and local government web resources and services.